sensor_id;sensor_type;location;lat;lon;timestamp;temperature;humidity
35363;DHT22;21463;47.480;8.214;2022-08-19T00:00:20;21.90;69.50
35363;DHT22;21463;47.480;8.214;2022-08-19T00:01:23;22.00;69.60
35363;DHT22;21463;47.480;8.214;2022-08-19T00:02:31;22.00;69.60
35363;DHT22;21463;47.480;8.214;2022-08-19T00:03:34;21.90;69.50
35363;DHT22;21463;47.480;8.214;2022-08-19T00:04:36;21.90;69.50
35363;DHT22;21463;47.480;8.214;2022-08-19T00:05:39;21.90;69.60
35363;DHT22;21463;47.480;8.214;2022-08-19T00:06:45;21.90;69.60
35363;DHT22;21463;47.480;8.214;2022-08-19T00:07:49;21.90;69.60
35363;DHT22;21463;47.480;8.214;2022-08-19T00:08:51;21.90;69.60
35363;DHT22;21463;47.480;8.214;2022-08-19T00:09:53;22.00;69.60
35363;DHT22;21463;47.480;8.214;2022-08-19T00:10:58;22.00;69.60
35363;DHT22;21463;47.480;8.214;2022-08-19T00:12:00;21.90;70.10
35363;DHT22;21463;47.480;8.214;2022-08-19T00:13:03;21.90;69.60
35363;DHT22;21463;47.480;8.214;2022-08-19T00:14:08;21.90;69.60
35363;DHT22;21463;47.480;8.214;2022-08-19T00:15:15;21.90;69.60
35363;DHT22;21463;47.480;8.214;2022-08-19T00:16:18;21.90;69.60
35363;DHT22;21463;47.480;8.214;2022-08-19T00:17:27;21.90;69.60
35363;DHT22;21463;47.480;8.214;2022-08-19T00:18:31;21.90;69.60
35363;DHT22;21463;47.480;8.214;2022-08-19T00:19:34;22.00;69.70
35363;DHT22;21463;47.480;8.214;2022-08-19T00:20:37;21.90;69.60
35363;DHT22;21463;47.480;8.214;2022-08-19T00:21:42;21.90;69.60
35363;DHT22;21463;47.480;8.214;2022-08-19T00:22:46;21.90;69.70
35363;DHT22;21463;47.480;8.214;2022-08-19T00:23:50;21.90;69.70
35363;DHT22;21463;47.480;8.214;2022-08-19T00:24:52;21.90;69.70
35363;DHT22;21463;47.480;8.214;2022-08-19T00:25:55;21.90;69.70
35363;DHT22;21463;47.480;8.214;2022-08-19T00:26:58;21.90;69.70
35363;DHT22;21463;47.480;8.214;2022-08-19T00:28:21;21.90;69.70
35363;DHT22;21463;47.480;8.214;2022-08-19T00:29:24;21.90;69.70
35363;DHT22;21463;47.480;8.214;2022-08-19T00:30:26;21.90;69.70
35363;DHT22;21463;47.480;8.214;2022-08-19T00:31:32;21.90;69.80
35363;DHT22;21463;47.480;8.214;2022-08-19T00:32:34;21.90;69.80
35363;DHT22;21463;47.480;8.214;2022-08-19T00:33:37;21.90;69.70
35363;DHT22;21463;47.480;8.214;2022-08-19T00:34:40;21.90;69.80
35363;DHT22;21463;47.480;8.214;2022-08-19T00:35:42;21.90;69.80
35363;DHT22;21463;47.480;8.214;2022-08-19T00:36:45;21.90;69.80
35363;DHT22;21463;47.480;8.214;2022-08-19T00:37:49;21.90;69.80
35363;DHT22;21463;47.480;8.214;2022-08-19T00:38:52;21.90;69.80
35363;DHT22;21463;47.480;8.214;2022-08-19T00:39:55;21.90;69.80
35363;DHT22;21463;47.480;8.214;2022-08-19T00:40:58;21.90;69.80
35363;DHT22;21463;47.480;8.214;2022-08-19T00:42:00;21.90;69.80
35363;DHT22;21463;47.480;8.214;2022-08-19T00:43:11;21.90;69.80
35363;DHT22;21463;47.480;8.214;2022-08-19T00:44:21;21.90;69.80
35363;DHT22;21463;47.480;8.214;2022-08-19T00:45:29;21.90;69.80
35363;DHT22;21463;47.480;8.214;2022-08-19T00:46:40;21.90;69.80
35363;DHT22;21463;47.480;8.214;2022-08-19T00:47:43;21.90;69.80
35363;DHT22;21463;47.480;8.214;2022-08-19T00:48:45;21.90;69.80
35363;DHT22;21463;47.480;8.214;2022-08-19T00:49:51;21.90;69.80
35363;DHT22;21463;47.480;8.214;2022-08-19T00:50:54;21.90;69.80
35363;DHT22;21463;47.480;8.214;2022-08-19T00:52:04;21.90;69.80
35363;DHT22;21463;47.480;8.214;2022-08-19T00:53:12;21.90;69.80
35363;DHT22;21463;47.480;8.214;2022-08-19T00:54:17;21.90;69.80
35363;DHT22;21463;47.480;8.214;2022-08-19T00:55:31;21.90;69.80
35363;DHT22;21463;47.480;8.214;2022-08-19T00:56:35;21.90;69.80
35363;DHT22;21463;47.480;8.214;2022-08-19T00:57:41;21.90;69.90
35363;DHT22;21463;47.480;8.214;2022-08-19T00:58:46;21.90;69.80
35363;DHT22;21463;47.480;8.214;2022-08-19T00:59:51;21.90;69.90
35363;DHT22;21463;47.480;8.214;2022-08-19T01:01:05;21.90;69.90
35363;DHT22;21463;47.480;8.214;2022-08-19T01:02:08;21.90;69.90
35363;DHT22;21463;47.480;8.214;2022-08-19T01:03:14;21.90;69.90
35363;DHT22;21463;47.480;8.214;2022-08-19T01:04:20;21.90;69.90
35363;DHT22;21463;47.480;8.214;2022-08-19T01:05:25;21.90;69.90
35363;DHT22;21463;47.480;8.214;2022-08-19T01:06:30;22.00;69.90
35363;DHT22;21463;47.480;8.214;2022-08-19T01:07:35;21.90;69.90
35363;DHT22;21463;47.480;8.214;2022-08-19T01:08:39;21.90;70.00
35363;DHT22;21463;47.480;8.214;2022-08-19T01:09:42;21.90;69.90
35363;DHT22;21463;47.480;8.214;2022-08-19T01:10:54;21.90;69.90
35363;DHT22;21463;47.480;8.214;2022-08-19T01:11:57;21.90;69.90
35363;DHT22;21463;47.480;8.214;2022-08-19T01:13:00;21.90;70.00
35363;DHT22;21463;47.480;8.214;2022-08-19T01:14:03;21.90;70.00
35363;DHT22;21463;47.480;8.214;2022-08-19T01:15:09;21.90;70.00
35363;DHT22;21463;47.480;8.214;2022-08-19T01:16:12;21.90;70.00
35363;DHT22;21463;47.480;8.214;2022-08-19T01:17:16;21.90;70.00
35363;DHT22;21463;47.480;8.214;2022-08-19T01:18:19;21.90;70.00
35363;DHT22;21463;47.480;8.214;2022-08-19T01:19:35;21.90;70.00
35363;DHT22;21463;47.480;8.214;2022-08-19T01:20:45;21.90;70.10
35363;DHT22;21463;47.480;8.214;2022-08-19T01:22:03;21.90;70.00
35363;DHT22;21463;47.480;8.214;2022-08-19T01:23:17;21.90;70.00
35363;DHT22;21463;47.480;8.214;2022-08-19T01:24:19;21.90;70.00
35363;DHT22;21463;47.480;8.214;2022-08-19T01:25:31;21.90;70.00
35363;DHT22;21463;47.480;8.214;2022-08-19T01:26:43;21.90;70.00
35363;DHT22;21463;47.480;8.214;2022-08-19T01:27:49;21.90;70.00
35363;DHT22;21463;47.480;8.214;2022-08-19T01:28:56;21.90;70.00
35363;DHT22;21463;47.480;8.214;2022-08-19T01:30:03;21.90;70.50
35363;DHT22;21463;47.480;8.214;2022-08-19T01:31:10;21.90;70.00
35363;DHT22;21463;47.480;8.214;2022-08-19T01:32:28;21.90;70.00
35363;DHT22;21463;47.480;8.214;2022-08-19T01:33:35;21.90;70.10
35363;DHT22;21463;47.480;8.214;2022-08-19T01:34:38;21.90;70.10
35363;DHT22;21463;47.480;8.214;2022-08-19T01:35:41;21.90;70.10
35363;DHT22;21463;47.480;8.214;2022-08-19T01:36:46;21.90;70.10
35363;DHT22;21463;47.480;8.214;2022-08-19T01:37:55;21.90;70.10
35363;DHT22;21463;47.480;8.214;2022-08-19T01:38:58;21.90;70.10
35363;DHT22;21463;47.480;8.214;2022-08-19T01:40:02;21.90;70.10
35363;DHT22;21463;47.480;8.214;2022-08-19T01:41:11;21.90;70.10
35363;DHT22;21463;47.480;8.214;2022-08-19T01:42:14;21.90;70.10
35363;DHT22;21463;47.480;8.214;2022-08-19T01:43:16;21.90;70.10
35363;DHT22;21463;47.480;8.214;2022-08-19T01:44:21;21.90;70.10
35363;DHT22;21463;47.480;8.214;2022-08-19T01:45:28;21.90;70.10
35363;DHT22;21463;47.480;8.214;2022-08-19T01:46:31;21.90;70.10
35363;DHT22;21463;47.480;8.214;2022-08-19T01:47:36;21.90;70.10
35363;DHT22;21463;47.480;8.214;2022-08-19T01:48:41;21.90;70.20
35363;DHT22;21463;47.480;8.214;2022-08-19T01:49:43;21.90;70.20
35363;DHT22;21463;47.480;8.214;2022-08-19T01:50:46;21.90;70.20
35363;DHT22;21463;47.480;8.214;2022-08-19T01:51:52;21.90;70.10
35363;DHT22;21463;47.480;8.214;2022-08-19T01:52:55;21.90;70.20
35363;DHT22;21463;47.480;8.214;2022-08-19T01:54:09;21.90;70.20
35363;DHT22;21463;47.480;8.214;2022-08-19T01:55:16;21.80;70.20
35363;DHT22;21463;47.480;8.214;2022-08-19T01:56:19;21.90;70.20
35363;DHT22;21463;47.480;8.214;2022-08-19T01:57:22;21.90;70.20
35363;DHT22;21463;47.480;8.214;2022-08-19T01:58:29;21.90;70.20
35363;DHT22;21463;47.480;8.214;2022-08-19T01:59:33;21.90;70.20
35363;DHT22;21463;47.480;8.214;2022-08-19T02:00:38;21.90;70.20
35363;DHT22;21463;47.480;8.214;2022-08-19T02:01:40;21.90;70.20
35363;DHT22;21463;47.480;8.214;2022-08-19T02:02:43;21.90;70.20
35363;DHT22;21463;47.480;8.214;2022-08-19T02:03:45;21.90;70.20
35363;DHT22;21463;47.480;8.214;2022-08-19T02:04:48;21.90;70.20
35363;DHT22;21463;47.480;8.214;2022-08-19T02:05:56;21.90;70.80
35363;DHT22;21463;47.480;8.214;2022-08-19T02:06:58;21.90;70.20
35363;DHT22;21463;47.480;8.214;2022-08-19T02:08:00;21.90;70.20
35363;DHT22;21463;47.480;8.214;2022-08-19T02:09:07;21.90;70.20
35363;DHT22;21463;47.480;8.214;2022-08-19T02:10:18;21.90;70.20
35363;DHT22;21463;47.480;8.214;2022-08-19T02:11:27;21.90;70.20
35363;DHT22;21463;47.480;8.214;2022-08-19T02:12:30;21.90;70.30
35363;DHT22;21463;47.480;8.214;2022-08-19T02:13:33;21.90;70.30
35363;DHT22;21463;47.480;8.214;2022-08-19T02:14:36;21.80;70.20
35363;DHT22;21463;47.480;8.214;2022-08-19T02:15:39;21.90;70.30
35363;DHT22;21463;47.480;8.214;2022-08-19T02:16:41;21.90;70.30
35363;DHT22;21463;47.480;8.214;2022-08-19T02:17:44;21.90;70.30
35363;DHT22;21463;47.480;8.214;2022-08-19T02:18:47;21.90;70.30
35363;DHT22;21463;47.480;8.214;2022-08-19T02:19:52;21.90;70.30
35363;DHT22;21463;47.480;8.214;2022-08-19T02:20:54;21.90;70.30
35363;DHT22;21463;47.480;8.214;2022-08-19T02:21:57;21.90;70.30
35363;DHT22;21463;47.480;8.214;2022-08-19T02:22:59;21.80;70.30
35363;DHT22;21463;47.480;8.214;2022-08-19T02:24:03;21.90;70.30
35363;DHT22;21463;47.480;8.214;2022-08-19T02:25:06;21.90;70.30
35363;DHT22;21463;47.480;8.214;2022-08-19T02:26:09;21.90;70.40
35363;DHT22;21463;47.480;8.214;2022-08-19T02:27:11;21.90;70.30
35363;DHT22;21463;47.480;8.214;2022-08-19T02:28:14;21.90;70.40
35363;DHT22;21463;47.480;8.214;2022-08-19T02:29:20;21.90;70.30
35363;DHT22;21463;47.480;8.214;2022-08-19T02:30:23;21.90;70.40
35363;DHT22;21463;47.480;8.214;2022-08-19T02:31:27;21.90;70.40
35363;DHT22;21463;47.480;8.214;2022-08-19T02:32:30;21.90;70.40
35363;DHT22;21463;47.480;8.214;2022-08-19T02:33:32;21.90;70.40
35363;DHT22;21463;47.480;8.214;2022-08-19T02:34:35;21.90;70.40
35363;DHT22;21463;47.480;8.214;2022-08-19T02:35:41;21.80;70.40
35363;DHT22;21463;47.480;8.214;2022-08-19T02:36:44;21.80;70.40
35363;DHT22;21463;47.480;8.214;2022-08-19T02:37:53;21.90;70.40
35363;DHT22;21463;47.480;8.214;2022-08-19T02:39:14;21.80;70.40
35363;DHT22;21463;47.480;8.214;2022-08-19T02:40:17;21.90;70.40
35363;DHT22;21463;47.480;8.214;2022-08-19T02:41:22;21.90;70.40
35363;DHT22;21463;47.480;8.214;2022-08-19T02:42:28;21.90;70.40
35363;DHT22;21463;47.480;8.214;2022-08-19T02:43:31;21.80;70.40
35363;DHT22;21463;47.480;8.214;2022-08-19T02:44:35;21.90;70.40
35363;DHT22;21463;47.480;8.214;2022-08-19T02:45:39;21.80;70.40
35363;DHT22;21463;47.480;8.214;2022-08-19T02:46:45;21.90;70.40
35363;DHT22;21463;47.480;8.214;2022-08-19T02:47:48;21.90;70.50
35363;DHT22;21463;47.480;8.214;2022-08-19T02:48:56;21.90;70.50
35363;DHT22;21463;47.480;8.214;2022-08-19T02:50:01;21.90;70.50
35363;DHT22;21463;47.480;8.214;2022-08-19T02:51:04;21.80;70.50
35363;DHT22;21463;47.480;8.214;2022-08-19T02:52:07;21.80;70.40
35363;DHT22;21463;47.480;8.214;2022-08-19T02:53:10;21.90;71.00
35363;DHT22;21463;47.480;8.214;2022-08-19T02:54:14;21.90;70.50
35363;DHT22;21463;47.480;8.214;2022-08-19T02:55:17;21.90;70.50
35363;DHT22;21463;47.480;8.214;2022-08-19T02:56:20;21.90;70.50
35363;DHT22;21463;47.480;8.214;2022-08-19T02:57:22;21.80;70.40
35363;DHT22;21463;47.480;8.214;2022-08-19T02:58:24;21.80;70.50
35363;DHT22;21463;47.480;8.214;2022-08-19T02:59:30;21.90;70.50
35363;DHT22;21463;47.480;8.214;2022-08-19T03:00:32;21.90;70.50
35363;DHT22;21463;47.480;8.214;2022-08-19T03:01:41;21.80;70.50
35363;DHT22;21463;47.480;8.214;2022-08-19T03:02:44;21.80;70.50
35363;DHT22;21463;47.480;8.214;2022-08-19T03:03:48;21.90;70.60
35363;DHT22;21463;47.480;8.214;2022-08-19T03:04:50;21.90;70.60
35363;DHT22;21463;47.480;8.214;2022-08-19T03:06:03;21.90;70.60
35363;DHT22;21463;47.480;8.214;2022-08-19T03:07:06;21.80;70.50
35363;DHT22;21463;47.480;8.214;2022-08-19T03:08:13;21.80;70.50
35363;DHT22;21463;47.480;8.214;2022-08-19T03:09:16;21.90;70.60
35363;DHT22;21463;47.480;8.214;2022-08-19T03:10:18;21.80;70.60
35363;DHT22;21463;47.480;8.214;2022-08-19T03:11:29;21.80;70.50
35363;DHT22;21463;47.480;8.214;2022-08-19T03:12:36;21.90;70.60
35363;DHT22;21463;47.480;8.214;2022-08-19T03:13:39;21.90;70.60
35363;DHT22;21463;47.480;8.214;2022-08-19T03:14:41;21.90;70.60
35363;DHT22;21463;47.480;8.214;2022-08-19T03:15:46;21.90;70.60
35363;DHT22;21463;47.480;8.214;2022-08-19T03:16:50;21.80;70.60
35363;DHT22;21463;47.480;8.214;2022-08-19T03:17:53;21.90;70.60
35363;DHT22;21463;47.480;8.214;2022-08-19T03:18:58;21.80;70.60
35363;DHT22;21463;47.480;8.214;2022-08-19T03:20:03;21.80;70.60
35363;DHT22;21463;47.480;8.214;2022-08-19T03:21:06;21.80;70.60
35363;DHT22;21463;47.480;8.214;2022-08-19T03:22:13;21.80;70.60
35363;DHT22;21463;47.480;8.214;2022-08-19T03:23:16;21.80;70.60
35363;DHT22;21463;47.480;8.214;2022-08-19T03:24:19;21.80;70.60
35363;DHT22;21463;47.480;8.214;2022-08-19T03:25:22;21.80;70.60
35363;DHT22;21463;47.480;8.214;2022-08-19T03:26:24;21.80;70.60
35363;DHT22;21463;47.480;8.214;2022-08-19T03:27:27;21.90;70.70
35363;DHT22;21463;47.480;8.214;2022-08-19T03:28:35;21.90;70.60
35363;DHT22;21463;47.480;8.214;2022-08-19T03:29:38;21.80;70.60
35363;DHT22;21463;47.480;8.214;2022-08-19T03:30:59;21.80;70.60
35363;DHT22;21463;47.480;8.214;2022-08-19T03:32:04;21.80;70.60
35363;DHT22;21463;47.480;8.214;2022-08-19T03:33:08;21.80;70.70
35363;DHT22;21463;47.480;8.214;2022-08-19T03:34:21;21.80;70.60
35363;DHT22;21463;47.480;8.214;2022-08-19T03:35:25;21.90;70.70
35363;DHT22;21463;47.480;8.214;2022-08-19T03:36:27;21.80;70.60
35363;DHT22;21463;47.480;8.214;2022-08-19T03:37:31;21.80;70.60
35363;DHT22;21463;47.480;8.214;2022-08-19T03:38:34;21.80;70.60
35363;DHT22;21463;47.480;8.214;2022-08-19T03:39:38;21.80;70.70
35363;DHT22;21463;47.480;8.214;2022-08-19T03:40:41;21.80;70.70
35363;DHT22;21463;47.480;8.214;2022-08-19T03:41:46;21.80;70.60
35363;DHT22;21463;47.480;8.214;2022-08-19T03:42:50;21.80;70.70
35363;DHT22;21463;47.480;8.214;2022-08-19T03:43:53;21.80;70.70
35363;DHT22;21463;47.480;8.214;2022-08-19T03:44:55;21.80;70.60
35363;DHT22;21463;47.480;8.214;2022-08-19T03:46:03;21.80;70.70
35363;DHT22;21463;47.480;8.214;2022-08-19T03:47:06;21.80;70.70
35363;DHT22;21463;47.480;8.214;2022-08-19T03:48:08;21.80;70.70
35363;DHT22;21463;47.480;8.214;2022-08-19T03:49:11;21.90;70.70
35363;DHT22;21463;47.480;8.214;2022-08-19T03:50:16;21.90;70.70
35363;DHT22;21463;47.480;8.214;2022-08-19T03:51:22;21.80;70.70
35363;DHT22;21463;47.480;8.214;2022-08-19T03:52:32;21.90;70.70
35363;DHT22;21463;47.480;8.214;2022-08-19T03:53:35;21.80;70.70
35363;DHT22;21463;47.480;8.214;2022-08-19T03:54:37;21.80;70.70
35363;DHT22;21463;47.480;8.214;2022-08-19T03:55:41;21.80;70.70
35363;DHT22;21463;47.480;8.214;2022-08-19T03:56:45;21.80;70.70
35363;DHT22;21463;47.480;8.214;2022-08-19T03:57:47;21.80;70.60
35363;DHT22;21463;47.480;8.214;2022-08-19T03:58:51;21.80;70.70
35363;DHT22;21463;47.480;8.214;2022-08-19T03:59:54;21.80;70.70
35363;DHT22;21463;47.480;8.214;2022-08-19T04:01:18;21.80;70.70
35363;DHT22;21463;47.480;8.214;2022-08-19T04:02:23;21.80;70.60
35363;DHT22;21463;47.480;8.214;2022-08-19T04:03:26;21.80;70.60
35363;DHT22;21463;47.480;8.214;2022-08-19T04:04:29;21.80;70.70
35363;DHT22;21463;47.480;8.214;2022-08-19T04:05:33;21.80;70.60
35363;DHT22;21463;47.480;8.214;2022-08-19T04:06:37;21.80;70.60
35363;DHT22;21463;47.480;8.214;2022-08-19T04:07:41;21.80;70.60
35363;DHT22;21463;47.480;8.214;2022-08-19T04:08:45;21.80;70.70
35363;DHT22;21463;47.480;8.214;2022-08-19T04:09:48;21.80;70.60
35363;DHT22;21463;47.480;8.214;2022-08-19T04:10:51;21.80;70.60
35363;DHT22;21463;47.480;8.214;2022-08-19T04:11:55;21.80;70.70
35363;DHT22;21463;47.480;8.214;2022-08-19T04:12:58;21.80;70.60
35363;DHT22;21463;47.480;8.214;2022-08-19T04:14:01;21.80;70.70
35363;DHT22;21463;47.480;8.214;2022-08-19T04:15:06;21.80;70.60
35363;DHT22;21463;47.480;8.214;2022-08-19T04:16:08;21.80;70.60
35363;DHT22;21463;47.480;8.214;2022-08-19T04:17:12;21.80;70.60
35363;DHT22;21463;47.480;8.214;2022-08-19T04:18:16;21.80;70.60
35363;DHT22;21463;47.480;8.214;2022-08-19T04:19:19;21.80;70.60
35363;DHT22;21463;47.480;8.214;2022-08-19T04:20:21;21.80;71.10
35363;DHT22;21463;47.480;8.214;2022-08-19T04:21:26;21.80;70.60
35363;DHT22;21463;47.480;8.214;2022-08-19T04:22:29;21.80;70.60
35363;DHT22;21463;47.480;8.214;2022-08-19T04:23:32;21.80;70.60
35363;DHT22;21463;47.480;8.214;2022-08-19T04:24:35;21.80;70.60
35363;DHT22;21463;47.480;8.214;2022-08-19T04:25:42;21.80;70.60
35363;DHT22;21463;47.480;8.214;2022-08-19T04:26:45;21.80;70.60
35363;DHT22;21463;47.480;8.214;2022-08-19T04:27:48;21.80;70.60
35363;DHT22;21463;47.480;8.214;2022-08-19T04:28:51;21.80;70.60
35363;DHT22;21463;47.480;8.214;2022-08-19T04:29:54;21.80;70.60
35363;DHT22;21463;47.480;8.214;2022-08-19T04:30:57;21.80;70.60
35363;DHT22;21463;47.480;8.214;2022-08-19T04:32:00;21.80;70.60
35363;DHT22;21463;47.480;8.214;2022-08-19T04:33:12;21.80;70.60
35363;DHT22;21463;47.480;8.214;2022-08-19T04:34:17;21.80;70.60
35363;DHT22;21463;47.480;8.214;2022-08-19T04:35:24;21.80;70.60
35363;DHT22;21463;47.480;8.214;2022-08-19T04:36:29;21.80;70.50
35363;DHT22;21463;47.480;8.214;2022-08-19T04:37:32;21.80;70.50
35363;DHT22;21463;47.480;8.214;2022-08-19T04:38:36;21.80;70.50
35363;DHT22;21463;47.480;8.214;2022-08-19T04:39:39;21.80;70.50
35363;DHT22;21463;47.480;8.214;2022-08-19T04:41:03;21.80;70.50
35363;DHT22;21463;47.480;8.214;2022-08-19T04:42:25;21.80;70.50
35363;DHT22;21463;47.480;8.214;2022-08-19T04:43:44;21.80;70.50
35363;DHT22;21463;47.480;8.214;2022-08-19T04:44:50;21.80;70.50
35363;DHT22;21463;47.480;8.214;2022-08-19T04:45:53;21.80;70.60
35363;DHT22;21463;47.480;8.214;2022-08-19T04:46:58;21.80;70.50
35363;DHT22;21463;47.480;8.214;2022-08-19T04:48:00;21.80;70.50
35363;DHT22;21463;47.480;8.214;2022-08-19T04:49:24;21.80;70.50
35363;DHT22;21463;47.480;8.214;2022-08-19T04:50:27;21.80;70.50
35363;DHT22;21463;47.480;8.214;2022-08-19T04:51:31;21.80;70.50
35363;DHT22;21463;47.480;8.214;2022-08-19T04:52:33;21.90;70.50
35363;DHT22;21463;47.480;8.214;2022-08-19T04:53:37;21.80;70.50
35363;DHT22;21463;47.480;8.214;2022-08-19T04:54:40;21.80;70.50
35363;DHT22;21463;47.480;8.214;2022-08-19T04:55:42;21.80;70.50
35363;DHT22;21463;47.480;8.214;2022-08-19T04:56:44;21.80;70.50
35363;DHT22;21463;47.480;8.214;2022-08-19T04:57:47;21.80;70.50
35363;DHT22;21463;47.480;8.214;2022-08-19T04:58:49;21.80;70.50
35363;DHT22;21463;47.480;8.214;2022-08-19T04:59:54;21.80;70.40
35363;DHT22;21463;47.480;8.214;2022-08-19T05:00:57;21.80;70.50
35363;DHT22;21463;47.480;8.214;2022-08-19T05:02:03;21.80;70.40
35363;DHT22;21463;47.480;8.214;2022-08-19T05:03:05;21.80;70.40
35363;DHT22;21463;47.480;8.214;2022-08-19T05:04:09;21.80;70.40
35363;DHT22;21463;47.480;8.214;2022-08-19T05:05:11;21.80;70.40
35363;DHT22;21463;47.480;8.214;2022-08-19T05:06:16;21.80;70.40
35363;DHT22;21463;47.480;8.214;2022-08-19T05:07:18;21.80;70.50
35363;DHT22;21463;47.480;8.214;2022-08-19T05:08:21;21.80;70.40
35363;DHT22;21463;47.480;8.214;2022-08-19T05:09:32;21.80;70.50
35363;DHT22;21463;47.480;8.214;2022-08-19T05:10:55;21.80;70.40
35363;DHT22;21463;47.480;8.214;2022-08-19T05:11:59;21.80;70.50
35363;DHT22;21463;47.480;8.214;2022-08-19T05:13:02;21.80;70.40
35363;DHT22;21463;47.480;8.214;2022-08-19T05:14:06;21.80;70.40
35363;DHT22;21463;47.480;8.214;2022-08-19T05:15:08;21.80;70.40
35363;DHT22;21463;47.480;8.214;2022-08-19T05:16:12;21.80;70.40
35363;DHT22;21463;47.480;8.214;2022-08-19T05:17:15;21.80;70.40
35363;DHT22;21463;47.480;8.214;2022-08-19T05:18:38;21.80;70.40
35363;DHT22;21463;47.480;8.214;2022-08-19T05:19:59;21.80;70.40
35363;DHT22;21463;47.480;8.214;2022-08-19T05:21:21;21.80;70.40
35363;DHT22;21463;47.480;8.214;2022-08-19T05:22:45;21.80;70.40
35363;DHT22;21463;47.480;8.214;2022-08-19T05:23:47;21.80;70.40
35363;DHT22;21463;47.480;8.214;2022-08-19T05:24:51;21.80;70.40
35363;DHT22;21463;47.480;8.214;2022-08-19T05:26:13;21.80;70.40
35363;DHT22;21463;47.480;8.214;2022-08-19T05:27:16;21.80;70.40
35363;DHT22;21463;47.480;8.214;2022-08-19T05:28:20;21.80;70.40
35363;DHT22;21463;47.480;8.214;2022-08-19T05:29:24;21.80;70.40
35363;DHT22;21463;47.480;8.214;2022-08-19T05:30:34;21.80;70.70
35363;DHT22;21463;47.480;8.214;2022-08-19T05:31:48;21.80;70.70
35363;DHT22;21463;47.480;8.214;2022-08-19T05:32:51;21.80;70.60
35363;DHT22;21463;47.480;8.214;2022-08-19T05:33:56;21.80;70.90
35363;DHT22;21463;47.480;8.214;2022-08-19T05:35:00;21.80;70.70
35363;DHT22;21463;47.480;8.214;2022-08-19T05:36:02;21.80;70.70
35363;DHT22;21463;47.480;8.214;2022-08-19T05:37:05;21.80;70.80
35363;DHT22;21463;47.480;8.214;2022-08-19T05:38:10;21.80;70.90
35363;DHT22;21463;47.480;8.214;2022-08-19T05:39:16;21.80;71.00
35363;DHT22;21463;47.480;8.214;2022-08-19T05:40:19;21.80;71.30
35363;DHT22;21463;47.480;8.214;2022-08-19T05:41:23;21.80;71.70
35363;DHT22;21463;47.480;8.214;2022-08-19T05:42:32;21.90;71.60
35363;DHT22;21463;47.480;8.214;2022-08-19T05:43:35;21.80;71.30
35363;DHT22;21463;47.480;8.214;2022-08-19T05:44:40;21.80;71.60
35363;DHT22;21463;47.480;8.214;2022-08-19T05:45:46;21.80;71.60
35363;DHT22;21463;47.480;8.214;2022-08-19T05:46:48;21.80;71.70
35363;DHT22;21463;47.480;8.214;2022-08-19T05:47:51;21.90;72.00
35363;DHT22;21463;47.480;8.214;2022-08-19T05:48:53;21.90;71.90
35363;DHT22;21463;47.480;8.214;2022-08-19T05:49:58;21.90;71.90
35363;DHT22;21463;47.480;8.214;2022-08-19T05:51:05;21.90;71.70
35363;DHT22;21463;47.480;8.214;2022-08-19T05:52:11;21.80;71.70
35363;DHT22;21463;47.480;8.214;2022-08-19T05:53:13;21.90;71.80
35363;DHT22;21463;47.480;8.214;2022-08-19T05:54:19;21.90;72.00
35363;DHT22;21463;47.480;8.214;2022-08-19T05:55:21;21.90;71.90
35363;DHT22;21463;47.480;8.214;2022-08-19T05:56:24;21.80;71.70
35363;DHT22;21463;47.480;8.214;2022-08-19T05:57:27;21.90;71.80
35363;DHT22;21463;47.480;8.214;2022-08-19T05:58:31;21.80;71.70
35363;DHT22;21463;47.480;8.214;2022-08-19T05:59:35;21.90;71.70
35363;DHT22;21463;47.480;8.214;2022-08-19T06:00:43;21.90;71.60
35363;DHT22;21463;47.480;8.214;2022-08-19T06:01:49;21.90;71.60
35363;DHT22;21463;47.480;8.214;2022-08-19T06:02:57;21.90;71.50
35363;DHT22;21463;47.480;8.214;2022-08-19T06:04:11;21.90;71.50
35363;DHT22;21463;47.480;8.214;2022-08-19T06:05:15;21.90;71.50
35363;DHT22;21463;47.480;8.214;2022-08-19T06:06:18;21.80;71.40
35363;DHT22;21463;47.480;8.214;2022-08-19T06:07:21;21.80;71.40
35363;DHT22;21463;47.480;8.214;2022-08-19T06:08:24;21.90;71.40
35363;DHT22;21463;47.480;8.214;2022-08-19T06:09:36;21.90;71.40
35363;DHT22;21463;47.480;8.214;2022-08-19T06:10:39;21.80;71.30
35363;DHT22;21463;47.480;8.214;2022-08-19T06:11:54;21.90;71.30
35363;DHT22;21463;47.480;8.214;2022-08-19T06:12:57;21.90;71.30
35363;DHT22;21463;47.480;8.214;2022-08-19T06:14:03;21.90;71.30
35363;DHT22;21463;47.480;8.214;2022-08-19T06:15:09;21.80;71.20
35363;DHT22;21463;47.480;8.214;2022-08-19T06:16:12;21.80;71.20
35363;DHT22;21463;47.480;8.214;2022-08-19T06:17:14;21.80;71.30
35363;DHT22;21463;47.480;8.214;2022-08-19T06:18:17;21.80;71.50
35363;DHT22;21463;47.480;8.214;2022-08-19T06:19:21;21.80;71.80
35363;DHT22;21463;47.480;8.214;2022-08-19T06:20:24;21.90;71.80
35363;DHT22;21463;47.480;8.214;2022-08-19T06:21:49;21.90;71.80
35363;DHT22;21463;47.480;8.214;2022-08-19T06:22:52;21.90;71.80
35363;DHT22;21463;47.480;8.214;2022-08-19T06:23:57;21.90;71.50
35363;DHT22;21463;47.480;8.214;2022-08-19T06:25:00;21.90;71.80
35363;DHT22;21463;47.480;8.214;2022-08-19T06:26:02;21.90;71.90
35363;DHT22;21463;47.480;8.214;2022-08-19T06:27:05;21.90;72.00
35363;DHT22;21463;47.480;8.214;2022-08-19T06:28:07;21.90;72.00
35363;DHT22;21463;47.480;8.214;2022-08-19T06:29:17;21.90;72.20
35363;DHT22;21463;47.480;8.214;2022-08-19T06:30:25;21.90;72.30
35363;DHT22;21463;47.480;8.214;2022-08-19T06:31:28;21.90;72.40
35363;DHT22;21463;47.480;8.214;2022-08-19T06:32:31;21.90;72.50
35363;DHT22;21463;47.480;8.214;2022-08-19T06:33:33;21.90;72.40
35363;DHT22;21463;47.480;8.214;2022-08-19T06:34:36;21.90;72.40
35363;DHT22;21463;47.480;8.214;2022-08-19T06:35:40;21.90;72.50
35363;DHT22;21463;47.480;8.214;2022-08-19T06:36:46;21.90;72.60
35363;DHT22;21463;47.480;8.214;2022-08-19T06:37:48;21.90;72.60
35363;DHT22;21463;47.480;8.214;2022-08-19T06:38:51;21.90;72.50
35363;DHT22;21463;47.480;8.214;2022-08-19T06:39:53;21.90;72.50
35363;DHT22;21463;47.480;8.214;2022-08-19T06:41:05;21.90;72.60
35363;DHT22;21463;47.480;8.214;2022-08-19T06:42:09;21.90;72.50
35363;DHT22;21463;47.480;8.214;2022-08-19T06:43:15;21.90;72.50
35363;DHT22;21463;47.480;8.214;2022-08-19T06:44:21;21.90;72.50
35363;DHT22;21463;47.480;8.214;2022-08-19T06:45:26;22.00;72.60
35363;DHT22;21463;47.480;8.214;2022-08-19T06:46:41;21.90;72.50
35363;DHT22;21463;47.480;8.214;2022-08-19T06:47:44;22.00;72.50
35363;DHT22;21463;47.480;8.214;2022-08-19T06:48:49;21.90;72.40
35363;DHT22;21463;47.480;8.214;2022-08-19T06:49:56;22.00;72.40
35363;DHT22;21463;47.480;8.214;2022-08-19T06:51:06;22.00;72.40
35363;DHT22;21463;47.480;8.214;2022-08-19T06:52:10;22.00;72.40